Time;durP1;ratioP1;P1;durP2;ratioP2;P2;SDS_P1;SDS_P2;PMS_P1;PMS_P2;Temp;Humidity;BMP_temperature;BMP_pressure;BME280_temperature;BME280_humidity;BME280_pressure;Samples;Min_cycle;Max_cycle;Signal;HPM_P1;HPM_P2
2022/08/22 00:02:23;;;;;;;5.05;2.78;;;20.20;59.00;;;;;;5104131;28;20428;-71
2022/08/22 00:05:00;;;;;;;4.83;2.80;;;20.30;58.70;;;;;;5106595;27;20830;-71
2022/08/22 00:07:41;;;;;;;5.93;3.05;;;20.20;59.10;;;;;;5093870;28;20448;-71
2022/08/22 00:10:16;;;;;;;4.25;2.40;;;20.20;59.40;;;;;;5102506;28;21319;-71
2022/08/22 00:12:46;;;;;;;4.82;2.78;;;20.20;59.40;;;;;;5107852;27;20741;-71
2022/08/22 00:15:18;;;;;;;4.90;2.90;;;20.20;59.50;;;;;;5105201;27;20904;-71
2022/08/22 00:17:51;;;;;;;4.40;2.72;;;20.10;59.80;;;;;;5105455;28;20481;-70
2022/08/22 00:20:23;;;;;;;4.82;2.70;;;20.10;60.00;;;;;;5112080;22;20435;-71
2022/08/22 00:22:55;;;;;;;4.33;2.60;;;20.10;59.70;;;;;;5063706;28;20538;-71
2022/08/22 00:25:47;;;;;;;4.75;2.60;;;20.00;60.40;;;;;;5066704;28;20884;-71
2022/08/22 00:28:18;;;;;;;6.00;2.90;;;20.00;61.20;;;;;;5050026;28;20461;-71
2022/08/22 00:30:55;;;;;;;6.07;3.20;;;20.00;60.50;;;;;;5047432;28;20532;-71
2022/08/22 00:33:31;;;;;;;6.53;3.10;;;19.90;60.80;;;;;;5044239;28;20745;-71
2022/08/22 00:36:14;;;;;;;3.25;2.50;;;19.90;61.80;;;;;;5047586;28;20453;-72
2022/08/22 00:38:46;;;;;;;4.47;2.70;;;19.90;60.90;;;;;;5050702;28;20421;-71
2022/08/22 00:41:29;;;;;;;4.20;3.00;;;19.90;61.30;;;;;;5048190;28;20426;-73
2022/08/22 00:44:31;;;;;;;5.15;2.90;;;19.80;61.40;;;;;;5049082;28;20509;-71
2022/08/22 00:47:33;;;;;;;4.70;3.08;;;19.90;61.40;;;;;;5035958;28;20446;-72
2022/08/22 00:50:19;;;;;;;4.35;3.00;;;19.80;61.70;;;;;;5017792;28;20421;-71
2022/08/22 00:53:08;;;;;;;3.88;2.50;;;19.80;61.70;;;;;;5052090;28;20427;-70
2022/08/22 00:55:58;;;;;;;4.40;2.90;;;19.80;61.60;;;;;;5060232;28;20683;-70
2022/08/22 00:58:53;;;;;;;5.20;2.70;;;19.70;62.20;;;;;;5072261;28;20433;-70
2022/08/22 01:01:27;;;;;;;5.70;2.90;;;19.70;61.90;;;;;;5068351;28;20415;-70
2022/08/22 01:04:10;;;;;;;4.53;2.90;;;19.70;62.90;;;;;;5074222;28;20457;-71
2022/08/22 01:06:45;;;;;;;4.50;2.70;;;19.60;61.80;;;;;;5073803;28;20417;-71
2022/08/22 01:09:27;;;;;;;2.87;2.50;;;19.60;63.10;;;;;;5051838;28;20510;-72
2022/08/22 01:12:14;;;;;;;5.85;2.67;;;19.50;63.30;;;;;;5045017;28;20453;-71
2022/08/22 01:14:49;;;;;;;6.18;2.75;;;19.50;63.00;;;;;;5051918;28;20941;-71
2022/08/22 01:17:57;;;;;;;6.90;2.90;;;19.50;63.40;;;;;;5043567;28;20434;-71
2022/08/22 01:21:00;;;;;;;3.65;2.78;;;19.40;63.10;;;;;;5041024;28;20448;-71
2022/08/22 01:24:11;;;;;;;4.65;2.80;;;19.40;62.60;;;;;;5044210;28;20435;-70
2022/08/22 01:27:07;;;;;;;3.53;2.50;;;19.40;63.20;;;;;;5046878;28;20835;-72
2022/08/22 01:30:10;;;;;;;4.72;2.90;;;19.40;62.80;;;;;;5046000;28;20414;-70
2022/08/22 01:33:09;;;;;;;5.97;2.72;;;19.30;63.00;;;;;;5047363;28;20424;-71
2022/08/22 01:36:02;;;;;;;5.40;2.88;;;19.30;63.90;;;;;;5042321;28;20437;-71
2022/08/22 01:39:01;;;;;;;4.90;2.50;;;19.30;62.90;;;;;;5042834;28;20425;-72
2022/08/22 01:42:05;;;;;;;4.22;2.97;;;19.30;62.90;;;;;;5030137;28;20472;-72
2022/08/22 01:44:55;;;;;;;4.03;2.50;;;19.20;63.90;;;;;;5033217;28;20436;-71
2022/08/22 01:47:26;;;;;;;5.30;2.60;;;19.20;63.60;;;;;;5038536;28;20483;-71
2022/08/22 01:49:59;;;;;;;5.30;2.70;;;19.20;63.60;;;;;;5057755;28;20508;-71
2022/08/22 01:52:37;;;;;;;4.30;3.00;;;19.20;63.60;;;;;;5033574;28;20454;-71
2022/08/22 01:55:10;;;;;;;5.43;2.88;;;19.20;64.10;;;;;;5045591;28;20433;-71
2022/08/22 01:57:50;;;;;;;4.70;2.60;;;19.20;63.80;;;;;;5048101;28;20799;-71
2022/08/22 02:00:21;;;;;;;4.97;3.00;;;19.10;64.40;;;;;;5045798;28;20584;-72
2022/08/22 02:03:02;;;;;;;3.92;2.80;;;19.10;64.50;;;;;;5047436;28;20472;-71
2022/08/22 02:05:36;;;;;;;4.93;3.10;;;19.10;63.60;;;;;;5049676;28;20464;-71
2022/08/22 02:08:16;;;;;;;3.95;2.83;;;19.00;64.00;;;;;;5041936;28;20423;-71
2022/08/22 02:10:52;;;;;;;4.90;2.60;;;19.00;64.40;;;;;;5050847;28;20548;-71
2022/08/22 02:13:44;;;;;;;4.60;3.08;;;19.00;65.10;;;;;;5043122;28;20425;-73
2022/08/22 02:16:17;;;;;;;4.32;3.10;;;19.00;64.80;;;;;;5031176;28;20433;-71
2022/08/22 02:19:07;;;;;;;5.22;3.17;;;19.00;64.90;;;;;;5036433;28;20431;-72
2022/08/22 02:21:43;;;;;;;4.30;2.80;;;19.00;64.70;;;;;;5042238;28;20513;-72
2022/08/22 02:24:24;;;;;;;4.60;3.17;;;19.00;65.20;;;;;;5042474;28;20437;-70
2022/08/22 02:27:03;;;;;;;5.10;3.13;;;19.00;65.20;;;;;;5044279;28;20436;-73
2022/08/22 02:29:38;;;;;;;5.40;3.30;;;19.00;64.70;;;;;;5041892;28;20445;-71
2022/08/22 02:32:19;;;;;;;4.15;3.08;;;19.00;65.00;;;;;;5040183;28;20572;-72
2022/08/22 02:34:56;;;;;;;5.25;3.40;;;19.00;64.50;;;;;;5043332;28;20858;-71
2022/08/22 02:37:34;;;;;;;4.50;3.17;;;19.00;65.00;;;;;;5046049;28;20468;-71
2022/08/22 02:40:10;;;;;;;5.57;2.92;;;19.00;64.70;;;;;;5043422;28;20469;-71
2022/08/22 02:42:43;;;;;;;5.38;2.80;;;19.00;64.90;;;;;;5032053;28;20424;-72
2022/08/22 02:45:22;;;;;;;4.80;2.90;;;19.00;65.80;;;;;;5042043;28;20433;-71
2022/08/22 02:47:56;;;;;;;4.70;3.00;;;19.00;65.50;;;;;;5045958;28;20495;-71
2022/08/22 02:50:31;;;;;;;5.53;3.25;;;19.00;66.10;;;;;;5043606;28;20419;-71
2022/08/22 02:53:02;;;;;;;4.30;3.17;;;18.90;65.60;;;;;;5043607;28;20452;-72
2022/08/22 02:55:46;;;;;;;5.95;3.30;;;19.00;66.00;;;;;;5046891;28;20473;-71
2022/08/22 02:58:19;;;;;;;5.25;3.50;;;18.90;65.90;;;;;;5037932;28;20441;-71
2022/08/22 03:00:51;;;;;;;6.80;3.60;;;18.90;66.60;;;;;;5043520;28;21083;-72
2022/08/22 03:03:25;;;;;;;5.10;3.00;;;18.90;66.70;;;;;;5045293;28;22918;-70
2022/08/22 03:05:58;;;;;;;4.60;3.20;;;18.80;66.30;;;;;;5045419;28;20426;-71
2022/08/22 03:08:28;;;;;;;5.32;3.20;;;18.90;67.00;;;;;;5047106;28;20512;-72
2022/08/22 03:11:08;;;;;;;3.65;3.15;;;18.80;66.90;;;;;;5036283;28;21124;-72
2022/08/22 03:13:49;;;;;;;4.40;3.50;;;18.80;67.60;;;;;;5041013;28;20433;-71
2022/08/22 03:16:22;;;;;;;4.50;3.10;;;18.70;67.50;;;;;;5038019;28;20956;-72
2022/08/22 03:18:58;;;;;;;5.18;3.80;;;18.70;67.10;;;;;;5046150;28;20503;-69
2022/08/22 03:21:32;;;;;;;5.90;3.40;;;18.70;68.10;;;;;;5038581;28;20779;-72
2022/08/22 03:24:06;;;;;;;6.20;3.80;;;18.60;67.70;;;;;;5046941;28;20425;-72
2022/08/22 03:26:43;;;;;;;6.15;3.38;;;18.60;67.40;;;;;;5039429;28;20452;-70
2022/08/22 03:29:16;;;;;;;5.83;3.50;;;18.50;68.40;;;;;;5046490;28;20440;-73
2022/08/22 03:32:10;;;;;;;4.55;3.78;;;18.50;68.40;;;;;;5056412;28;20432;-71
2022/08/22 03:34:38;;;;;;;4.43;3.40;;;18.50;68.60;;;;;;5072765;28;20406;-72
2022/08/22 03:37:16;;;;;;;4.73;3.83;;;18.50;68.70;;;;;;5064111;28;20445;-71
2022/08/22 03:39:54;;;;;;;5.10;3.60;;;18.50;69.10;;;;;;5064059;28;20418;-71
2022/08/22 03:43:01;;;;;;;5.32;3.70;;;18.40;69.30;;;;;;5060010;28;20491;-71
2022/08/22 03:46:02;;;;;;;5.55;4.30;;;18.40;69.50;;;;;;5041838;28;20524;-72
2022/08/22 03:49:05;;;;;;;5.50;4.70;;;18.40;70.20;;;;;;5043972;28;20464;-71
2022/08/22 03:51:44;;;;;;;5.60;4.10;;;18.40;70.20;;;;;;5041661;28;20821;-71
2022/08/22 03:54:44;;;;;;;5.07;4.07;;;18.40;70.50;;;;;;5035354;28;20433;-71
2022/08/22 03:58:03;;;;;;;5.13;4.00;;;18.40;70.50;;;;;;5045097;28;20507;-71
2022/08/22 04:00:48;;;;;;;4.35;3.95;;;18.40;70.40;;;;;;5052105;28;20453;-70
2022/08/22 04:03:43;;;;;;;6.00;4.38;;;18.40;70.40;;;;;;5045183;28;20421;-72
2022/08/22 04:06:53;;;;;;;5.72;4.13;;;18.40;70.80;;;;;;5038634;28;20440;-72
2022/08/22 04:09:48;;;;;;;5.57;3.90;;;18.40;70.80;;;;;;5044143;28;20428;-72
2022/08/22 04:12:30;;;;;;;6.30;4.15;;;18.30;70.90;;;;;;5038385;28;20514;-72
2022/08/22 04:15:37;;;;;;;7.10;4.80;;;18.30;71.00;;;;;;5050141;28;20437;-72
2022/08/22 04:18:40;;;;;;;5.63;3.90;;;18.30;70.60;;;;;;5031196;28;20419;-72
2022/08/22 04:21:34;;;;;;;5.20;4.10;;;18.30;70.90;;;;;;5026699;28;20418;-71
2022/08/22 04:24:13;;;;;;;4.65;3.70;;;18.30;70.70;;;;;;5044563;28;20457;-71
2022/08/22 04:26:47;;;;;;;5.63;4.00;;;18.30;70.80;;;;;;5046243;28;20504;-71
2022/08/22 04:29:21;;;;;;;6.20;4.30;;;18.30;72.00;;;;;;5039403;28;20981;-71
2022/08/22 04:31:54;;;;;;;6.95;3.92;;;18.20;71.30;;;;;;5047049;28;20526;-71
2022/08/22 04:34:32;;;;;;;4.43;3.97;;;18.20;71.40;;;;;;5050224;28;20452;-72
2022/08/22 04:37:06;;;;;;;5.57;4.40;;;18.20;71.20;;;;;;5045996;28;20430;-72
2022/08/22 04:39:39;;;;;;;5.55;4.45;;;18.10;71.00;;;;;;5046142;28;20495;-72
2022/08/22 04:42:13;;;;;;;8.00;4.50;;;18.00;71.50;;;;;;5045974;28;20435;-72
2022/08/22 04:44:47;;;;;;;6.13;4.00;;;18.00;71.80;;;;;;5039621;28;20437;-73
2022/08/22 04:47:27;;;;;;;6.95;4.80;;;17.90;71.90;;;;;;5044113;28;20427;-72
2022/08/22 04:50:01;;;;;;;5.70;4.43;;;17.90;71.90;;;;;;5041709;28;20947;-72
2022/08/22 04:52:50;;;;;;;5.30;4.20;;;17.90;71.90;;;;;;5049274;28;20436;-73
2022/08/22 04:55:31;;;;;;;5.38;4.50;;;17.90;71.80;;;;;;5034893;28;20455;-72
2022/08/22 04:58:08;;;;;;;6.00;5.20;;;17.90;71.70;;;;;;5038016;28;20953;-72
2022/08/22 05:00:40;;;;;;;6.43;4.65;;;17.90;71.80;;;;;;5045328;28;20513;-72
2022/08/22 05:03:12;;;;;;;6.38;4.90;;;17.90;71.80;;;;;;5040083;28;20501;-72
2022/08/22 05:05:43;;;;;;;5.82;4.95;;;17.90;72.30;;;;;;5049111;28;20435;-71
2022/08/22 05:08:13;;;;;;;5.93;4.88;;;17.90;71.90;;;;;;5050579;28;20445;-65
2022/08/22 05:10:44;;;;;;;5.88;4.68;;;17.90;71.50;;;;;;5043236;28;20512;-68
2022/08/22 05:13:16;;;;;;;5.60;4.43;;;17.90;71.40;;;;;;5040907;28;20429;-68
2022/08/22 05:15:48;;;;;;;5.32;4.80;;;17.90;71.00;;;;;;5048768;28;20421;-67
2022/08/22 05:18:21;;;;;;;5.55;4.80;;;17.90;70.90;;;;;;5036560;28;20442;-67
2022/08/22 05:20:51;;;;;;;5.32;4.82;;;17.90;71.90;;;;;;5051549;28;20819;-66
2022/08/22 05:23:23;;;;;;;5.63;4.90;;;17.90;71.30;;;;;;5045655;28;20508;-66
2022/08/22 05:25:54;;;;;;;6.20;5.00;;;17.90;71.80;;;;;;5042148;28;20433;-66
2022/08/22 05:28:32;;;;;;;7.82;5.20;;;18.00;71.30;;;;;;5035493;28;20492;-67
2022/08/22 05:31:02;;;;;;;7.10;5.22;;;18.00;71.00;;;;;;5049526;28;20435;-68
2022/08/22 05:33:32;;;;;;;10.75;5.70;;;18.10;71.40;;;;;;5043231;28;20445;-68
2022/08/22 05:36:06;;;;;;;10.60;5.38;;;18.10;71.10;;;;;;5048158;28;20432;-67
2022/08/22 05:38:37;;;;;;;12.15;5.50;;;18.10;70.40;;;;;;5041623;28;21021;-67
2022/08/22 05:41:07;;;;;;;8.00;4.70;;;18.20;70.00;;;;;;5036217;28;20430;-66
2022/08/22 05:43:38;;;;;;;6.72;4.55;;;18.20;69.70;;;;;;5048997;28;20498;-67
2022/08/22 05:46:09;;;;;;;6.85;4.28;;;18.20;70.00;;;;;;5041508;28;20433;-68
2022/08/22 05:48:41;;;;;;;7.22;4.80;;;18.30;69.90;;;;;;5047596;28;20433;-67
2022/08/22 05:51:17;;;;;;;10.98;5.47;;;18.30;70.50;;;;;;5040803;28;20431;-67
2022/08/22 05:53:49;;;;;;;16.00;7.80;;;18.30;70.40;;;;;;5049448;28;20863;-67
2022/08/22 05:56:25;;;;;;;17.92;7.28;;;18.20;70.30;;;;;;5053294;28;20508;-66
2022/08/22 05:58:55;;;;;;;13.43;6.97;;;18.30;69.70;;;;;;5055227;28;20472;-67
2022/08/22 06:01:28;;;;;;;7.10;5.95;;;18.30;69.60;;;;;;5061053;28;20464;-68
2022/08/22 06:04:06;;;;;;;15.27;7.90;;;18.30;70.10;;;;;;5048848;28;20425;-66
2022/08/22 06:06:42;;;;;;;10.10;6.20;;;18.30;69.40;;;;;;5046166;28;20429;-68
2022/08/22 06:09:17;;;;;;;7.68;5.63;;;18.40;68.70;;;;;;5040255;28;20521;-68
2022/08/22 06:11:48;;;;;;;9.27;5.67;;;18.40;68.00;;;;;;5039550;28;20462;-68
2022/08/22 06:14:28;;;;;;;7.63;5.70;;;18.50;68.10;;;;;;5047927;28;20417;-70
2022/08/22 06:17:04;;;;;;;7.37;4.80;;;18.50;68.50;;;;;;5046516;28;20544;-69
2022/08/22 06:19:35;;;;;;;7.53;4.50;;;18.50;66.70;;;;;;5039007;28;20901;-67
2022/08/22 06:22:05;;;;;;;6.25;4.18;;;18.70;66.90;;;;;;5080902;22;20603;-74
2022/08/22 06:24:35;;;;;;;5.82;4.05;;;18.70;66.50;;;;;;5099074;27;20427;-73
2022/08/22 06:27:07;;;;;;;8.20;4.80;;;18.80;66.90;;;;;;5108899;27;20436;-72
2022/08/22 06:29:37;;;;;;;7.00;4.20;;;18.90;66.50;;;;;;5105981;27;20428;-72
2022/08/22 06:32:12;;;;;;;5.90;4.75;;;19.00;66.50;;;;;;5105350;27;20423;-71
2022/08/22 06:34:42;;;;;;;6.63;3.80;;;19.10;67.00;;;;;;5111283;27;20417;-71
2022/08/22 06:37:17;;;;;;;5.28;3.70;;;19.10;66.00;;;;;;5096015;27;20433;-71
2022/08/22 06:39:47;;;;;;;4.60;3.63;;;19.20;66.40;;;;;;5104506;28;20412;-71
2022/08/22 06:42:18;;;;;;;4.63;4.03;;;19.20;66.40;;;;;;5094708;28;20442;-71
2022/08/22 06:44:49;;;;;;;4.20;3.80;;;19.30;66.10;;;;;;5101069;28;20443;-71
2022/08/22 06:47:19;;;;;;;6.32;4.20;;;19.40;65.80;;;;;;5102663;28;20428;-71
2022/08/22 06:49:46;;;;;;;5.18;4.47;;;19.50;64.50;;;;;;5104245;28;20434;-71
2022/08/22 06:52:21;;;;;;;5.70;3.40;;;19.70;64.40;;;;;;5103099;27;20755;-71
2022/08/22 06:54:51;;;;;;;5.40;3.65;;;19.70;64.30;;;;;;5103737;27;20416;-72
2022/08/22 06:57:31;;;;;;;5.10;3.63;;;19.80;63.90;;;;;;5104567;27;20456;-73
2022/08/22 07:00:01;;;;;;;5.85;3.70;;;19.80;63.70;;;;;;5110527;27;20426;-71
2022/08/22 07:02:33;;;;;;;6.53;4.00;;;19.80;63.50;;;;;;5110601;27;20428;-71
2022/08/22 07:05:00;;;;;;;7.22;4.00;;;19.90;63.60;;;;;;5111353;27;20756;-73
2022/08/22 07:07:28;;;;;;;6.13;3.90;;;20.00;62.80;;;;;;5108104;28;20427;-73
2022/08/22 07:09:56;;;;;;;4.38;3.22;;;20.20;63.10;;;;;;5099026;28;20428;-71
2022/08/22 07:12:27;;;;;;;7.95;3.80;;;20.30;61.80;;;;;;5103195;28;20531;-73
2022/08/22 07:15:00;;;;;;;5.45;4.15;;;20.50;61.50;;;;;;5099091;28;20434;-74
2022/08/22 07:17:31;;;;;;;4.72;3.50;;;20.60;61.00;;;;;;5110249;28;20518;-73
2022/08/22 07:20:11;;;;;;;5.57;3.70;;;20.60;60.80;;;;;;5112719;28;21253;-73
2022/08/22 07:22:39;;;;;;;5.37;3.63;;;20.70;60.40;;;;;;5104367;27;20959;-71
2022/08/22 07:25:09;;;;;;;6.82;3.70;;;20.90;59.30;;;;;;5103860;28;20422;-71
2022/08/22 07:27:49;;;;;;;7.05;4.10;;;21.00;57.10;;;;;;5099708;28;20519;-74
2022/08/22 07:30:19;;;;;;;6.72;4.30;;;21.10;57.40;;;;;;5104401;28;20453;-71
2022/08/22 07:32:53;;;;;;;5.63;3.50;;;21.20;57.20;;;;;;5112246;28;20871;-71
2022/08/22 07:35:24;;;;;;;7.68;3.65;;;21.40;57.10;;;;;;5103116;28;20435;-71
2022/08/22 07:38:08;;;;;;;8.60;3.40;;;21.60;56.40;;;;;;5098003;28;20877;-71
2022/08/22 07:40:41;;;;;;;5.10;3.05;;;21.80;55.60;;;;;;5102470;28;20843;-71
2022/08/22 07:43:20;;;;;;;4.45;3.78;;;22.10;55.30;;;;;;5099404;28;20860;-71
2022/08/22 07:45:51;;;;;;;9.45;3.50;;;22.40;53.50;;;;;;5105401;27;21051;-71
2022/08/22 07:48:22;;;;;;;9.23;4.25;;;22.60;52.80;;;;;;5114021;27;20452;-71
2022/08/22 07:50:58;;;;;;;5.67;3.30;;;22.70;52.20;;;;;;5103593;28;20511;-71
2022/08/22 07:53:32;;;;;;;4.97;3.53;;;22.80;52.50;;;;;;5100708;28;20449;-71
2022/08/22 07:56:03;;;;;;;9.03;3.77;;;22.90;52.10;;;;;;5111415;27;20437;-71
2022/08/22 07:58:33;;;;;;;7.57;3.80;;;23.10;51.60;;;;;;5111680;27;20463;-71
2022/08/22 08:01:01;;;;;;;3.95;2.30;;;23.40;51.00;;;;;;5113124;27;20425;-71
2022/08/22 08:03:30;;;;;;;5.03;3.00;;;23.60;51.10;;;;;;5107618;27;20399;-71
2022/08/22 08:06:01;;;;;;;4.03;2.03;;;23.70;50.10;;;;;;5100942;27;20436;-69
2022/08/22 08:08:33;;;;;;;4.63;2.70;;;23.90;50.00;;;;;;5107547;27;20416;-69
2022/08/22 08:11:00;;;;;;;5.10;3.00;;;24.10;51.10;;;;;;5106971;27;20527;-67
2022/08/22 08:13:33;;;;;;;5.18;2.63;;;24.20;52.50;;;;;;5100204;27;20446;-70
2022/08/22 08:16:02;;;;;;;4.00;2.90;;;24.30;53.00;;;;;;5100404;28;20465;-70
2022/08/22 08:18:33;;;;;;;4.35;2.88;;;24.30;49.80;;;;;;5099904;28;20458;-70
2022/08/22 08:21:02;;;;;;;6.03;3.35;;;24.50;49.20;;;;;;5109452;27;20434;-71
2022/08/22 08:23:37;;;;;;;3.92;2.70;;;24.60;49.20;;;;;;5108132;28;20738;-70
2022/08/22 08:26:11;;;;;;;4.68;2.70;;;24.70;48.70;;;;;;5102063;28;20432;-70
2022/08/22 08:28:41;;;;;;;4.32;2.75;;;24.90;46.70;;;;;;5107900;27;20871;-71
2022/08/22 08:31:15;;;;;;;5.35;2.53;;;25.20;47.00;;;;;;5107587;27;20465;-71
2022/08/22 08:33:46;;;;;;;4.20;2.60;;;25.40;44.80;;;;;;5100925;28;21061;-71
2022/08/22 08:36:28;;;;;;;5.70;2.50;;;25.70;45.90;;;;;;5115317;27;20418;-71
2022/08/22 08:39:09;;;;;;;3.45;2.10;;;25.90;47.40;;;;;;5111372;27;20438;-71
2022/08/22 08:42:14;;;;;;;6.60;2.50;;;26.00;47.60;;;;;;5097709;28;20909;-71
2022/08/22 08:45:09;;;;;;;3.22;2.13;;;26.00;44.20;;;;;;5104680;28;20459;-71
2022/08/22 08:47:58;;;;;;;3.72;1.77;;;26.20;44.60;;;;;;5105836;28;20513;-71
2022/08/22 08:50:37;;;;;;;3.58;1.80;;;26.30;43.40;;;;;;5106262;28;20412;-71
2022/08/22 08:53:25;;;;;;;3.38;1.65;;;26.40;43.20;;;;;;5108297;27;20457;-71
2022/08/22 08:56:00;;;;;;;3.92;1.80;;;26.60;44.00;;;;;;5107914;27;20440;-71
2022/08/22 08:58:37;;;;;;;2.55;1.50;;;26.50;43.10;;;;;;5114549;27;20879;-72
2022/08/22 09:01:19;;;;;;;2.75;2.00;;;26.50;42.70;;;;;;5103850;27;20429;-71
2022/08/22 09:04:19;;;;;;;3.03;1.80;;;26.60;41.70;;;;;;5112755;27;20428;-71
2022/08/22 09:06:59;;;;;;;4.67;2.00;;;26.70;43.20;;;;;;5108824;27;20424;-71
2022/08/22 09:09:39;;;;;;;3.60;1.90;;;26.80;43.80;;;;;;5118333;27;20554;-71
2022/08/22 09:12:31;;;;;;;3.30;1.80;;;27.00;41.30;;;;;;5100401;28;20519;-71
2022/08/22 09:15:24;;;;;;;3.92;1.75;;;27.50;41.20;;;;;;5110908;27;20663;-71
2022/08/22 09:18:36;;;;;;;3.88;2.28;;;27.60;40.90;;;;;;5106263;27;20901;-71
2022/08/22 09:21:30;;;;;;;5.10;1.80;;;27.80;42.30;;;;;;5102198;28;20529;-71
2022/08/22 09:24:29;;;;;;;3.72;1.70;;;28.00;40.20;;;;;;5103814;28;20475;-71
2022/08/22 09:26:59;;;;;;;2.67;1.60;;;28.20;39.30;;;;;;5100476;28;20447;-71
2022/08/22 09:29:39;;;;;;;6.43;2.40;;;28.20;39.60;;;;;;5100621;28;20517;-71
2022/08/22 09:32:12;;;;;;;4.47;2.23;;;28.20;38.10;;;;;;5102186;27;20491;-71
2022/08/22 09:34:55;;;;;;;3.90;1.95;;;28.30;38.70;;;;;;5105042;27;20479;-71
2022/08/22 09:37:34;;;;;;;2.10;1.50;;;28.50;37.70;;;;;;5108167;27;21071;-71
2022/08/22 09:40:05;;;;;;;2.40;1.53;;;28.70;37.30;;;;;;5112213;27;20418;-72
2022/08/22 09:42:41;;;;;;;2.45;1.52;;;28.80;37.30;;;;;;5109779;27;20738;-71
2022/08/22 09:45:49;;;;;;;3.67;1.60;;;28.50;36.70;;;;;;5103560;27;20776;-71
2022/08/22 09:48:30;;;;;;;2.40;1.70;;;28.30;35.80;;;;;;5045242;28;20431;-71
2022/08/22 09:51:07;;;;;;;3.95;1.67;;;28.30;35.10;;;;;;5040707;28;20461;-71
2022/08/22 09:53:50;;;;;;;3.05;1.88;;;28.50;36.60;;;;;;5085545;27;20430;-71
2022/08/22 09:56:23;;;;;;;3.20;1.90;;;28.40;36.50;;;;;;5100266;27;21154;-73
2022/08/22 09:58:59;;;;;;;2.97;1.50;;;28.40;36.30;;;;;;5103671;28;20439;-72
2022/08/22 10:01:30;;;;;;;3.20;1.38;;;28.30;36.40;;;;;;5101174;28;20589;-73
2022/08/22 10:04:33;;;;;;;1.70;1.40;;;28.20;38.20;;;;;;5113656;27;20516;-72
2022/08/22 10:07:12;;;;;;;5.13;1.83;;;28.10;38.00;;;;;;5097304;28;20515;-72
2022/08/22 10:09:48;;;;;;;3.25;1.70;;;27.70;35.70;;;;;;5111423;27;20402;-72
2022/08/22 10:12:19;;;;;;;2.60;1.80;;;27.50;36.60;;;;;;5103515;27;20444;-72
2022/08/22 10:15:05;;;;;;;3.87;1.70;;;27.30;36.50;;;;;;5103724;28;20488;-72
2022/08/22 10:17:36;;;;;;;3.57;1.60;;;27.40;38.10;;;;;;5105445;28;20416;-72
2022/08/22 10:20:13;;;;;;;3.28;1.70;;;27.80;36.20;;;;;;5105258;28;20412;-72
2022/08/22 10:22:46;;;;;;;2.35;1.70;;;28.10;36.00;;;;;;5093036;28;20407;-72
2022/08/22 10:25:37;;;;;;;4.00;1.60;;;28.60;36.20;;;;;;5101088;28;20436;-73
2022/08/22 10:28:16;;;;;;;1.50;1.10;;;29.00;34.00;;;;;;5106953;27;20498;-72
2022/08/22 10:31:02;;;;;;;2.30;1.27;;;29.50;34.30;;;;;;5110468;27;20511;-73
2022/08/22 10:33:34;;;;;;;3.35;1.60;;;29.80;33.20;;;;;;5101206;27;20426;-73
2022/08/22 10:36:06;;;;;;;2.28;1.30;;;30.00;32.50;;;;;;5101345;27;20428;-73
2022/08/22 10:38:38;;;;;;;2.03;1.38;;;30.20;33.30;;;;;;5103567;27;20456;-72
2022/08/22 10:41:10;;;;;;;2.72;1.33;;;30.30;32.80;;;;;;5099964;27;20419;-73
2022/08/22 10:43:44;;;;;;;3.90;1.48;;;30.50;33.20;;;;;;5112393;27;20428;-73
2022/08/22 10:46:14;;;;;;;2.63;1.35;;;30.70;32.30;;;;;;5096829;28;20431;-72
2022/08/22 10:48:48;;;;;;;2.75;1.40;;;30.70;31.30;;;;;;5100586;27;20513;-73
2022/08/22 10:51:27;;;;;;;3.28;1.70;;;30.80;31.90;;;;;;5109488;27;20429;-72
2022/08/22 10:54:19;;;;;;;2.15;1.30;;;30.80;31.90;;;;;;5110735;27;20504;-72
2022/08/22 10:56:54;;;;;;;3.00;1.80;;;30.50;32.10;;;;;;5101101;28;20428;-73
2022/08/22 10:59:35;;;;;;;2.00;1.40;;;30.10;30.80;;;;;;5105019;28;20538;-73
2022/08/22 11:02:21;;;;;;;2.20;1.30;;;29.80;32.00;;;;;;5101068;28;20433;-72
2022/08/22 11:05:21;;;;;;;2.63;1.40;;;29.60;31.50;;;;;;5102969;28;20450;-73
2022/08/22 11:07:57;;;;;;;3.30;1.80;;;29.50;33.70;;;;;;5104664;28;20435;-72
2022/08/22 11:10:33;;;;;;;3.20;1.60;;;29.40;32.00;;;;;;5097567;28;20432;-73
2022/08/22 11:13:13;;;;;;;1.40;1.30;;;29.30;33.00;;;;;;5114019;28;20489;-73
2022/08/22 11:15:55;;;;;;;2.90;1.60;;;29.40;31.90;;;;;;5108152;27;20426;-73
2022/08/22 11:18:41;;;;;;;2.40;1.60;;;29.70;31.30;;;;;;5100620;28;20416;-73
2022/08/22 11:21:16;;;;;;;2.20;1.50;;;29.90;31.00;;;;;;5092712;28;20412;-73
2022/08/22 11:23:48;;;;;;;1.95;1.50;;;29.90;31.50;;;;;;5101835;28;20436;-74
2022/08/22 11:26:27;;;;;;;3.30;1.60;;;30.10;31.20;;;;;;5100393;28;20438;-73
2022/08/22 11:29:17;;;;;;;2.55;1.60;;;30.40;30.40;;;;;;5103075;28;20428;-74
2022/08/22 11:31:51;;;;;;;1.67;1.40;;;30.70;30.80;;;;;;5101999;27;21004;-75
2022/08/22 11:34:32;;;;;;;2.45;1.42;;;30.90;29.60;;;;;;5110499;27;20462;-74
2022/08/22 11:37:06;;;;;;;2.25;1.55;;;31.20;29.30;;;;;;5109799;27;20410;-70
2022/08/22 11:39:40;;;;;;;2.58;1.60;;;31.20;29.80;;;;;;5117947;27;20519;-70
2022/08/22 11:42:15;;;;;;;5.20;1.90;;;31.30;29.30;;;;;;5096660;28;20424;-71
2022/08/22 11:44:46;;;;;;;2.70;1.52;;;31.00;30.20;;;;;;5110963;27;20795;-70
2022/08/22 11:47:17;;;;;;;2.60;1.50;;;30.70;30.20;;;;;;5105932;27;20434;-67
2022/08/22 11:49:56;;;;;;;2.45;1.70;;;30.40;29.20;;;;;;5115001;27;20427;-69
2022/08/22 11:52:34;;;;;;;2.53;1.90;;;30.10;30.20;;;;;;5098943;27;20910;-70
2022/08/22 11:55:21;;;;;;;2.17;1.40;;;30.00;29.50;;;;;;5116281;27;20485;-68
2022/08/22 11:57:50;;;;;;;2.15;1.60;;;29.80;30.00;;;;;;5116771;27;20434;-70
2022/08/22 12:00:26;;;;;;;2.17;1.40;;;30.00;30.20;;;;;;5105289;27;20945;-69
2022/08/22 12:03:31;;;;;;;2.45;1.50;;;30.00;30.00;;;;;;5103724;27;20428;-68
2022/08/22 12:06:04;;;;;;;2.33;1.50;;;30.20;29.10;;;;;;5111320;27;21052;-70
2022/08/22 12:09:16;;;;;;;2.50;1.60;;;30.30;29.90;;;;;;5107678;27;20428;-70
2022/08/22 12:11:57;;;;;;;3.22;1.80;;;30.40;29.20;;;;;;5075118;27;20478;-70
2022/08/22 12:14:31;;;;;;;2.60;1.60;;;30.80;28.90;;;;;;5102565;27;20526;-70
2022/08/22 12:17:09;;;;;;;2.90;1.40;;;31.10;28.30;;;;;;5105300;28;20428;-70
2022/08/22 12:19:47;;;;;;;1.83;1.40;;;31.10;28.80;;;;;;5103889;27;20426;-69
2022/08/22 12:22:47;;;;;;;1.95;1.35;;;31.10;28.30;;;;;;5108975;27;20435;-69
2022/08/22 12:25:28;;;;;;;1.60;1.30;;;31.10;28.60;;;;;;5100964;28;20496;-69
2022/08/22 12:28:09;;;;;;;2.40;1.52;;;31.20;29.00;;;;;;5105442;28;20428;-69
2022/08/22 12:30:50;;;;;;;1.85;1.55;;;31.20;28.00;;;;;;5110941;27;20450;-71
2022/08/22 12:34:02;;;;;;;2.38;1.48;;;31.20;28.70;;;;;;5114350;27;20427;-70
2022/08/22 12:36:51;;;;;;;2.00;1.48;;;31.30;28.20;;;;;;5080922;27;20516;-70
2022/08/22 12:39:36;;;;;;;3.17;1.70;;;31.20;28.30;;;;;;5102549;27;20423;-71
2022/08/22 12:42:34;;;;;;;3.15;1.55;;;31.10;28.20;;;;;;5099380;27;20462;-71
2022/08/22 12:45:26;;;;;;;1.77;1.60;;;30.80;29.00;;;;;;5100159;28;20517;-69
2022/08/22 12:48:02;;;;;;;4.13;1.90;;;30.60;29.40;;;;;;5108192;27;20539;-69
2022/08/22 12:50:42;;;;;;;2.28;1.80;;;30.50;28.70;;;;;;5100690;27;20495;-68
2022/08/22 12:53:46;;;;;;;2.92;1.70;;;30.30;28.90;;;;;;5098437;27;20522;-70
2022/08/22 12:56:27;;;;;;;2.80;1.83;;;30.00;29.00;;;;;;5111447;27;20432;-69
2022/08/22 12:59:22;;;;;;;3.30;2.00;;;29.80;29.70;;;;;;5104737;28;20502;-69
2022/08/22 13:01:54;;;;;;;2.80;1.70;;;29.80;29.50;;;;;;5093817;27;20472;-70
2022/08/22 13:04:23;;;;;;;2.88;1.92;;;29.60;30.00;;;;;;5099749;27;20428;-71
2022/08/22 13:07:16;;;;;;;4.30;2.20;;;29.50;30.00;;;;;;5108567;27;20700;-71
2022/08/22 13:09:48;;;;;;;3.78;1.98;;;29.50;29.30;;;;;;5102887;27;20800;-69
2022/08/22 13:12:23;;;;;;;2.88;1.60;;;29.30;29.50;;;;;;5106873;22;20435;-72
2022/08/22 13:14:54;;;;;;;2.38;1.80;;;29.20;30.30;;;;;;5083214;28;20943;-73
2022/08/22 13:17:23;;;;;;;2.63;1.55;;;29.10;30.00;;;;;;5066361;28;20440;-72
2022/08/22 13:19:55;;;;;;;3.28;1.70;;;29.20;30.90;;;;;;5064252;28;20518;-72
2022/08/22 13:22:26;;;;;;;4.85;1.90;;;29.20;30.30;;;;;;5062837;28;20438;-71
2022/08/22 13:25:00;;;;;;;2.50;1.70;;;29.30;29.60;;;;;;5066147;28;20432;-71
2022/08/22 13:27:31;;;;;;;3.95;1.55;;;29.40;30.50;;;;;;5062652;28;20442;-73
2022/08/22 13:30:02;;;;;;;2.20;1.63;;;29.50;30.90;;;;;;5061240;28;20441;-72
2022/08/22 13:32:36;;;;;;;3.55;2.55;;;29.60;31.70;;;;;;5064882;28;20506;-72
2022/08/22 13:35:03;;;;;;;4.55;1.90;;;29.60;31.10;;;;;;5054971;28;20888;-73
2022/08/22 13:37:35;;;;;;;4.13;1.83;;;29.70;29.20;;;;;;5059582;28;20427;-73
2022/08/22 13:40:06;;;;;;;1.83;1.50;;;29.80;29.90;;;;;;5059328;28;20435;-72
2022/08/22 13:42:39;;;;;;;3.00;2.05;;;29.70;28.80;;;;;;5070306;28;20493;-72
2022/08/22 13:45:16;;;;;;;2.33;1.85;;;29.80;28.70;;;;;;5066984;28;20514;-71
2022/08/22 13:47:55;;;;;;;3.20;1.77;;;30.00;28.80;;;;;;5058081;28;20518;-73